Time;durP1;ratioP1;P1;durP2;ratioP2;P2;SDS_P1;SDS_P2;PMS_P1;PMS_P2;Temp;Humidity;BMP_temperature;BMP_pressure;BME280_temperature;BME280_humidity;BME280_pressure;Samples;Min_cycle;Max_cycle;Signal;HPM_P1;HPM_P2
2022/08/16 00:01:52;;;;;;;5.43;4.07;;;;;;;19.81;100.00;98250.47;5110801;28;20195;-80
2022/08/16 00:04:24;;;;;;;7.03;4.23;;;;;;;19.80;100.00;98244.25;5094621;28;20222;-79
2022/08/16 00:06:53;;;;;;;6.93;4.97;;;;;;;19.99;100.00;98234.88;5110732;28;20187;-80
2022/08/16 00:09:22;;;;;;;9.03;4.47;;;;;;;20.12;100.00;98243.13;5107757;28;20289;-79
2022/08/16 00:11:50;;;;;;;5.90;5.17;;;;;;;20.17;100.00;98242.59;5107469;28;20294;-80
2022/08/16 00:14:28;;;;;;;6.37;5.00;;;;;;;19.93;100.00;98246.31;5111035;28;20193;-79
2022/08/16 00:16:58;;;;;;;6.20;4.90;;;;;;;19.94;100.00;98248.81;5067145;28;20674;-79
2022/08/16 00:19:48;;;;;;;5.20;4.70;;;;;;;19.86;100.00;98251.56;5068604;28;20198;-79
2022/08/16 00:22:22;;;;;;;5.63;5.07;;;;;;;19.66;100.00;98255.75;5067664;28;20192;-79
2022/08/16 00:24:52;;;;;;;5.20;4.80;;;;;;;19.73;100.00;98259.41;5067871;28;20207;-79
2022/08/16 00:27:23;;;;;;;7.70;4.90;;;;;;;19.87;100.00;98260.47;5061756;28;20195;-79
2022/08/16 00:29:51;;;;;;;6.87;5.17;;;;;;;19.58;100.00;98269.22;5067924;28;20244;-80
2022/08/16 00:32:36;;;;;;;6.43;4.80;;;;;;;19.59;100.00;98262.84;5068172;28;20216;-80
2022/08/16 00:35:15;;;;;;;6.83;4.80;;;;;;;19.69;100.00;98267.00;5082037;28;20217;-79
2022/08/16 00:37:46;;;;;;;5.30;4.80;;;;;;;19.77;100.00;98267.94;5107152;28;20664;-80
2022/08/16 00:40:30;;;;;;;10.03;5.43;;;;;;;20.00;100.00;98256.19;5112241;28;20197;-79
2022/08/16 00:43:08;;;;;;;6.27;5.40;;;;;;;20.12;100.00;98258.44;5112653;28;20222;-80
2022/08/16 00:45:52;;;;;;;5.80;5.20;;;;;;;20.04;100.00;98261.19;5117053;28;20641;-80
2022/08/16 00:48:29;;;;;;;6.80;5.30;;;;;;;20.06;100.00;98256.47;5108936;28;20210;-79
2022/08/16 00:51:15;;;;;;;9.27;5.47;;;;;;;19.95;100.00;98263.09;5110693;28;20220;-79
2022/08/16 00:53:46;;;;;;;5.50;4.73;;;;;;;19.99;100.00;98262.59;5114737;28;20199;-79
2022/08/16 00:56:18;;;;;;;7.87;5.40;;;;;;;19.83;100.00;98275.28;5117013;28;20197;-79
2022/08/16 00:59:08;;;;;;;6.33;5.43;;;;;;;19.80;100.00;98271.13;5117050;28;20195;-79
2022/08/16 01:01:37;;;;;;;6.93;4.80;;;;;;;19.91;100.00;98265.31;5110354;28;20285;-79
2022/08/16 01:04:08;;;;;;;8.60;5.07;;;;;;;19.85;100.00;98273.25;5114117;28;20191;-79
2022/08/16 01:07:04;;;;;;;5.73;5.00;;;;;;;19.68;100.00;98267.16;5074087;28;20208;-79
2022/08/16 01:09:36;;;;;;;6.43;5.07;;;;;;;19.69;100.00;98267.00;5008417;28;20228;-80
2022/08/16 01:12:11;;;;;;;6.47;5.37;;;;;;;19.43;100.00;98261.91;5011687;28;20202;-79
2022/08/16 01:14:58;;;;;;;9.03;5.40;;;;;;;19.40;100.00;98266.81;5012851;28;20661;-79
2022/08/16 01:17:29;;;;;;;6.00;5.00;;;;;;;19.47;100.00;98269.59;5007548;28;20208;-80
2022/08/16 01:20:07;;;;;;;5.90;5.30;;;;;;;19.60;100.00;98268.06;5009428;28;20198;-80
2022/08/16 01:23:07;;;;;;;7.50;5.20;;;;;;;19.68;100.00;98276.03;5008519;28;20289;-79
2022/08/16 01:25:42;;;;;;;6.10;5.47;;;;;;;19.53;100.00;98274.28;5046786;28;20200;-79
2022/08/16 01:28:14;;;;;;;5.47;4.77;;;;;;;19.45;100.00;98272.47;5096782;28;20212;-80
2022/08/16 01:30:55;;;;;;;8.83;5.43;;;;;;;19.40;100.00;98288.28;5113800;28;20251;-79
2022/08/16 01:33:24;;;;;;;6.27;5.23;;;;;;;19.36;100.00;98287.78;5115462;28;20250;-80
2022/08/16 01:36:06;;;;;;;7.33;6.00;;;;;;;19.32;100.00;98283.78;5111877;28;20205;-79
2022/08/16 01:38:41;;;;;;;5.77;5.07;;;;;;;19.34;100.00;98284.44;5116031;28;20274;-79
2022/08/16 01:41:22;;;;;;;7.23;5.57;;;;;;;19.28;100.00;98278.94;5113342;28;20227;-79
2022/08/16 01:43:52;;;;;;;7.40;5.57;;;;;;;19.23;100.00;98284.84;5113629;28;20190;-79
2022/08/16 01:46:26;;;;;;;8.00;5.23;;;;;;;19.38;100.00;98280.38;5113451;28;20187;-79
2022/08/16 01:49:09;;;;;;;7.20;5.20;;;;;;;19.37;100.00;98281.41;5111605;28;20201;-79
2022/08/16 01:51:39;;;;;;;5.93;5.30;;;;;;;19.35;100.00;98278.06;5111138;28;20217;-79
2022/08/16 01:54:11;;;;;;;9.30;5.70;;;;;;;19.31;100.00;98284.81;5112049;28;20209;-80
2022/08/16 01:56:44;;;;;;;6.70;5.27;;;;;;;19.28;100.00;98278.94;5110712;28;20205;-79
2022/08/16 01:59:16;;;;;;;6.10;5.50;;;;;;;19.23;100.00;98278.63;5113632;28;20195;-79
2022/08/16 02:01:49;;;;;;;6.80;5.50;;;;;;;19.04;100.00;98287.94;5108242;28;20293;-79
2022/08/16 02:04:28;;;;;;;7.63;5.20;;;;;;;19.02;100.00;98282.75;5114566;28;20212;-79
2022/08/16 02:07:17;;;;;;;7.60;5.33;;;;;;;19.15;100.00;98290.25;5115737;28;20267;-79
2022/08/16 02:09:51;;;;;;;7.93;5.47;;;;;;;19.13;100.00;98274.31;5110404;28;20293;-79
2022/08/16 02:12:29;;;;;;;7.07;5.60;;;;;;;19.15;100.00;98282.19;5115328;28;20191;-79
2022/08/16 02:15:22;;;;;;;5.93;5.30;;;;;;;19.13;100.00;98289.59;5115868;28;20202;-80
2022/08/16 02:17:53;;;;;;;7.10;5.60;;;;;;;19.19;100.00;98280.81;5114383;28;20187;-80
2022/08/16 02:20:22;;;;;;;6.43;5.80;;;;;;;19.26;100.00;98280.97;5115422;28;20191;-79
2022/08/16 02:22:55;;;;;;;6.77;6.00;;;;;;;19.10;100.00;98281.84;5110859;28;20191;-80
2022/08/16 02:25:24;;;;;;;7.20;5.93;;;;;;;19.06;100.00;98285.91;5115389;28;20191;-79
2022/08/16 02:28:14;;;;;;;6.43;5.83;;;;;;;18.81;100.00;98279.78;5115724;28;20195;-80
2022/08/16 02:30:44;;;;;;;6.90;5.73;;;;;;;18.83;100.00;98288.50;5112428;28;20222;-79
2022/08/16 02:33:17;;;;;;;6.40;5.63;;;;;;;18.77;100.00;98283.81;5109735;28;20191;-80
2022/08/16 02:35:46;;;;;;;7.73;6.60;;;;;;;18.73;100.00;98285.19;5109563;28;20187;-79
2022/08/16 02:38:26;;;;;;;7.63;6.00;;;;;;;18.73;100.00;98283.34;5109183;28;20645;-79
2022/08/16 02:40:55;;;;;;;7.27;6.07;;;;;;;18.76;100.00;98282.16;5109328;28;20649;-80
2022/08/16 02:43:27;;;;;;;7.77;5.97;;;;;;;18.86;100.00;98283.63;5109695;28;20263;-80
2022/08/16 02:46:02;;;;;;;6.10;5.23;;;;;;;18.67;100.00;98277.81;5112728;28;20201;-79
2022/08/16 02:48:35;;;;;;;6.77;5.97;;;;;;;18.60;100.00;98283.81;5113642;28;20198;-79
2022/08/16 02:53:51;;;;;;;6.57;5.83;;;;;;;18.62;100.00;98275.59;5111240;28;20205;-79
2022/08/16 02:56:23;;;;;;;6.13;5.53;;;;;;;18.64;100.00;98278.13;5106418;28;20223;-79
2022/08/16 02:59:01;;;;;;;6.57;5.90;;;;;;;18.62;100.00;98285.47;5111870;28;20195;-79
2022/08/16 03:01:40;;;;;;;6.50;5.80;;;;;;;18.59;100.00;98287.50;5110376;28;20219;-79
2022/08/16 03:04:09;;;;;;;7.73;5.93;;;;;;;18.66;100.00;98293.06;5108990;28;20207;-79
2022/08/16 03:06:57;;;;;;;6.87;6.00;;;;;;;18.60;100.00;98289.19;5114080;28;20202;-80
2022/08/16 03:09:26;;;;;;;8.07;6.40;;;;;;;18.63;100.00;98285.34;5107947;28;20199;-79
2022/08/16 03:11:57;;;;;;;6.60;5.90;;;;;;;18.60;100.00;98280.28;5105992;28;20698;-79
2022/08/16 03:14:29;;;;;;;8.40;6.00;;;;;;;18.66;100.00;98285.03;5050420;28;20215;-79
2022/08/16 03:16:59;;;;;;;6.77;6.10;;;;;;;18.70;100.00;98294.38;5046991;28;20276;-80
2022/08/16 03:19:32;;;;;;;7.93;6.07;;;;;;;18.59;100.00;98287.50;5051578;28;20228;-80
2022/08/16 03:22:21;;;;;;;7.27;6.00;;;;;;;18.47;100.00;98293.41;5051757;28;20388;-79
2022/08/16 03:24:59;;;;;;;6.57;5.93;;;;;;;18.50;100.00;98287.69;5051663;28;20211;-79
2022/08/16 03:27:29;;;;;;;6.67;5.97;;;;;;;18.43;100.00;98284.00;5048837;28;20357;-79
2022/08/16 03:30:03;;;;;;;7.03;5.93;;;;;;;18.39;100.00;98286.19;5047786;28;20765;-79
2022/08/16 03:32:47;;;;;;;6.83;6.13;;;;;;;18.45;100.00;98288.22;5081610;28;20277;-79
2022/08/16 03:35:21;;;;;;;6.80;5.60;;;;;;;18.54;100.00;98289.03;5111350;28;20222;-79
2022/08/16 03:37:55;;;;;;;8.00;6.10;;;;;;;18.53;100.00;98285.53;5071657;28;20187;-79
2022/08/16 03:40:33;;;;;;;9.37;6.37;;;;;;;18.48;100.00;98282.50;5107431;28;20244;-80
2022/08/16 03:43:04;;;;;;;7.30;5.97;;;;;;;18.42;100.00;98285.00;5113984;28;20641;-80
2022/08/16 03:45:50;;;;;;;6.67;5.97;;;;;;;18.39;100.00;98285.34;5110688;28;20215;-79
2022/08/16 03:48:22;;;;;;;6.37;5.77;;;;;;;18.49;100.00;98284.16;5108215;28;20184;-80
2022/08/16 03:51:11;;;;;;;7.83;5.80;;;;;;;18.40;100.00;98281.66;5108030;28;20343;-80
2022/08/16 03:53:41;;;;;;;7.17;6.23;;;;;;;18.33;100.00;98288.72;5113843;28;20351;-79
2022/08/16 03:56:11;;;;;;;7.57;5.93;;;;;;;18.30;100.00;98287.22;5109946;28;20251;-80
2022/08/16 03:58:48;;;;;;;6.70;6.10;;;;;;;18.33;100.00;98299.44;5111992;28;20273;-79
2022/08/16 04:01:22;;;;;;;7.23;6.37;;;;;;;18.34;100.00;98303.81;5110942;28;20282;-80
2022/08/16 04:03:56;;;;;;;8.10;6.13;;;;;;;18.27;100.00;98295.59;5110360;28;20190;-80
2022/08/16 04:06:25;;;;;;;7.73;6.07;;;;;;;18.20;100.00;98306.13;5109710;28;20202;-80
2022/08/16 04:08:54;;;;;;;7.87;6.00;;;;;;;18.18;100.00;98299.28;5102366;28;20199;-80
2022/08/16 04:11:24;;;;;;;6.97;6.33;;;;;;;17.93;100.00;98303.78;5113028;28;20246;-80
2022/08/16 04:13:52;;;;;;;8.37;6.37;;;;;;;18.00;100.00;98304.78;5106887;28;20195;-79
2022/08/16 04:16:37;;;;;;;6.73;6.03;;;;;;;18.14;100.00;98304.13;5107184;28;20206;-80
2022/08/16 04:19:05;;;;;;;10.13;6.47;;;;;;;18.12;100.00;98308.81;5104770;28;20199;-80
2022/08/16 04:21:36;;;;;;;8.80;6.37;;;;;;;17.97;100.00;98303.28;5110560;28;20194;-79
2022/08/16 04:24:15;;;;;;;7.23;6.23;;;;;;;17.93;100.00;98306.44;5111786;28;20218;-79
2022/08/16 04:26:44;;;;;;;7.70;6.43;;;;;;;18.01;100.00;98309.97;5105918;28;20201;-79
2022/08/16 04:29:14;;;;;;;6.93;6.23;;;;;;;18.05;100.00;98307.81;5108304;28;20646;-79
2022/08/16 04:31:54;;;;;;;7.30;6.57;;;;;;;17.99;100.00;98311.16;5110267;28;20211;-80
2022/08/16 04:34:27;;;;;;;7.90;6.00;;;;;;;17.89;100.00;98307.81;5112388;28;20187;-80
2022/08/16 04:36:57;;;;;;;10.13;6.80;;;;;;;17.74;100.00;98313.78;5106756;28;20202;-79
2022/08/16 04:39:29;;;;;;;8.87;6.37;;;;;;;17.94;100.00;98321.53;5110661;28;20208;-80
2022/08/16 04:42:16;;;;;;;7.70;6.30;;;;;;;17.85;100.00;98331.38;5111987;28;20231;-79
2022/08/16 04:44:45;;;;;;;8.00;6.77;;;;;;;17.78;100.00;98322.34;5087745;28;20263;-80
2022/08/16 04:47:27;;;;;;;7.97;6.90;;;;;;;17.64;100.00;98326.47;5088048;28;20188;-79
2022/08/16 04:50:03;;;;;;;6.50;5.90;;;;;;;17.72;100.00;98337.22;5055047;28;20199;-79
2022/08/16 04:52:32;;;;;;;7.30;6.60;;;;;;;17.71;100.00;98340.91;5082865;28;20702;-80
2022/08/16 04:55:07;;;;;;;7.30;6.60;;;;;;;17.70;100.00;98343.75;5085147;28;20207;-79
2022/08/16 04:57:37;;;;;;;7.30;6.60;;;;;;;17.67;100.00;98344.06;5085129;28;20245;-79
2022/08/16 05:00:10;;;;;;;7.07;6.30;;;;;;;17.66;100.00;98350.38;5088139;28;20203;-79
2022/08/16 05:03:04;;;;;;;9.63;7.00;;;;;;;17.78;100.00;98348.31;5101701;28;20207;-79
2022/08/16 05:05:38;;;;;;;7.97;6.50;;;;;;;17.87;100.00;98350.84;5110284;28;20195;-80
2022/08/16 05:08:25;;;;;;;8.23;6.93;;;;;;;17.87;100.00;98342.81;5109258;28;20190;-79
2022/08/16 05:10:58;;;;;;;10.13;6.50;;;;;;;17.88;100.00;98341.78;5112036;28;20292;-80
2022/08/16 05:13:27;;;;;;;6.90;6.20;;;;;;;17.84;100.00;98344.94;5110354;28;20654;-80
2022/08/16 05:16:09;;;;;;;7.07;6.33;;;;;;;17.83;100.00;98351.31;5112002;28;20214;-79
2022/08/16 05:18:40;;;;;;;7.63;6.83;;;;;;;17.90;100.00;98349.66;5107298;28;20202;-80
2022/08/16 05:21:09;;;;;;;8.27;7.00;;;;;;;18.06;100.00;98352.38;5107075;28;20203;-80
2022/08/16 05:23:40;;;;;;;8.53;7.07;;;;;;;18.08;100.00;98350.38;5107441;28;20256;-79
2022/08/16 05:26:11;;;;;;;7.70;6.90;;;;;;;18.22;100.00;98351.53;5105829;28;20256;-79
2022/08/16 05:28:48;;;;;;;7.53;6.73;;;;;;;18.28;100.00;98349.03;5109400;28;20278;-79
2022/08/16 05:31:23;;;;;;;11.53;7.40;;;;;;;18.27;100.00;98338.50;5115642;28;20720;-80
2022/08/16 05:33:59;;;;;;;8.13;7.00;;;;;;;18.16;100.00;98347.69;5114054;28;20201;-80
2022/08/16 05:36:28;;;;;;;7.87;6.70;;;;;;;18.28;100.00;98349.03;5108786;28;20223;-79
2022/08/16 05:39:05;;;;;;;9.10;7.60;;;;;;;18.31;100.00;98358.59;5114516;28;20191;-79
2022/08/16 05:41:37;;;;;;;8.67;6.93;;;;;;;18.32;100.00;98360.25;5112519;28;20219;-79
2022/08/16 05:44:15;;;;;;;7.33;6.60;;;;;;;18.40;100.00;98362.94;5113278;28;20202;-79
2022/08/16 05:46:54;;;;;;;9.43;6.87;;;;;;;18.62;100.00;98363.28;5113242;28;20202;-79
2022/08/16 05:49:25;;;;;;;8.83;6.83;;;;;;;18.52;100.00;98358.91;5116467;28;20206;-80
2022/08/16 05:52:07;;;;;;;8.50;7.47;;;;;;;18.80;100.00;98369.31;5111618;28;20272;-80
2022/08/16 05:54:39;;;;;;;10.17;7.87;;;;;;;18.81;100.00;98368.31;5113470;28;20198;-79
2022/08/16 05:57:14;;;;;;;9.97;7.87;;;;;;;18.88;100.00;98367.47;5111269;28;20191;-80
2022/08/16 05:59:44;;;;;;;9.73;8.10;;;;;;;19.00;100.00;98365.25;5111465;28;20211;-79
2022/08/16 06:02:13;;;;;;;8.00;7.10;;;;;;;19.08;100.00;98367.09;5111663;28;20230;-79
2022/08/16 06:04:45;;;;;;;8.57;7.70;;;;;;;19.04;100.00;98358.56;5111646;28;20202;-79
2022/08/16 06:07:14;;;;;;;8.10;7.20;;;;;;;19.03;100.00;98374.84;5109861;28;20202;-79
2022/08/16 06:09:55;;;;;;;9.87;7.70;;;;;;;19.31;100.00;98362.69;5109183;28;20701;-80
2022/08/16 06:12:23;;;;;;;10.97;8.70;;;;;;;19.16;100.00;98367.06;5115496;28;20222;-80
2022/08/16 06:14:58;;;;;;;10.33;9.23;;;;;;;19.23;100.00;98370.75;5115134;28;20270;-80
2022/08/16 06:17:29;;;;;;;12.60;8.40;;;;;;;19.25;100.00;98373.25;5109003;28;20274;-80
2022/08/16 06:20:15;;;;;;;10.40;8.77;;;;;;;19.28;100.00;98375.59;5068911;28;20190;-79
2022/08/16 06:22:54;;;;;;;10.60;8.93;;;;;;;19.56;100.00;98386.78;5110295;28;20199;-80
2022/08/16 06:25:32;;;;;;;10.47;9.37;;;;;;;19.43;100.00;98390.00;5112527;28;20209;-79
2022/08/16 06:28:07;;;;;;;9.90;8.73;;;;;;;19.42;100.00;98394.53;5115085;28;20673;-79
2022/08/16 06:30:39;;;;;;;10.63;8.37;;;;;;;19.55;100.00;98391.28;5109484;28;20195;-79
2022/08/16 06:33:13;;;;;;;12.27;9.60;;;;;;;19.40;100.00;98384.97;5111819;28;20218;-79
2022/08/16 06:35:52;;;;;;;11.27;9.83;;;;;;;19.43;100.00;98395.38;5110366;28;20203;-80
2022/08/16 06:38:28;;;;;;;10.30;9.27;;;;;;;19.43;100.00;98393.50;5111139;28;20222;-80
2022/08/16 06:41:04;;;;;;;10.93;9.83;;;;;;;19.54;100.00;98394.97;5107692;28;20657;-80
2022/08/16 06:43:33;;;;;;;10.30;8.80;;;;;;;19.68;100.00;98402.31;5110711;28;20244;-80
2022/08/16 06:46:04;;;;;;;10.30;9.00;;;;;;;19.71;100.00;98404.69;5111939;28;20219;-79
2022/08/16 06:48:39;;;;;;;11.40;8.57;;;;;;;19.76;100.00;98396.09;5068424;28;20212;-79
2022/08/16 06:51:11;;;;;;;11.93;8.40;;;;;;;19.89;100.00;98384.78;5065921;28;20310;-79
2022/08/16 06:53:42;;;;;;;12.10;9.73;;;;;;;19.84;100.00;98390.69;5067999;28;20224;-79
2022/08/16 06:56:11;;;;;;;10.00;8.97;;;;;;;19.92;100.00;98393.31;5069373;28;20209;-79
2022/08/16 06:58:50;;;;;;;13.00;9.50;;;;;;;20.01;100.00;98386.91;4990395;28;20709;-79
2022/08/16 07:01:19;;;;;;;11.67;10.47;;;;;;;19.83;100.00;98377.41;4989493;28;20195;-79
2022/08/16 07:04:07;;;;;;;9.53;8.53;;;;;;;20.17;100.00;98390.47;4992951;28;20207;-79
2022/08/16 07:06:41;;;;;;;12.37;9.50;;;;;;;20.25;100.00;98393.94;5005338;28;20197;-79
2022/08/16 07:09:13;;;;;;;9.83;8.77;;;;;;;20.38;100.00;98387.16;5028737;28;20236;-79
2022/08/16 07:11:43;;;;;;;11.50;8.40;;;;;;;20.42;100.00;98392.00;5029700;28;20186;-80
2022/08/16 07:14:19;;;;;;;11.07;8.90;;;;;;;20.43;100.00;98385.63;5030922;28;20277;-79
2022/08/16 07:16:56;;;;;;;11.33;9.07;;;;;;;20.65;100.00;98383.09;5064246;28;20277;-80
2022/08/16 07:19:28;;;;;;;11.27;9.13;;;;;;;20.72;100.00;98386.75;5111461;28;20218;-80
2022/08/16 07:22:18;;;;;;;11.60;8.93;;;;;;;20.67;100.00;98383.78;5114546;28;20199;-79
2022/08/16 07:25:10;;;;;;;10.33;8.20;;;;;;;20.91;100.00;98388.09;5085218;28;20203;-80
2022/08/16 07:27:39;;;;;;;9.43;8.17;;;;;;;21.07;100.00;98388.75;5046706;28;20749;-80
2022/08/16 07:30:12;;;;;;;10.30;7.77;;;;;;;21.21;100.00;98386.25;5044739;28;20208;-80
2022/08/16 07:33:01;;;;;;;12.30;9.07;;;;;;;21.29;100.00;98395.13;5049936;28;20266;-79
2022/08/16 07:35:29;;;;;;;8.47;7.67;;;;;;;21.40;100.00;98383.03;5046867;28;20208;-80
2022/08/16 07:38:00;;;;;;;9.70;8.70;;;;;;;21.58;100.00;98386.19;5043769;28;20201;-79
2022/08/16 07:40:30;;;;;;;10.70;8.27;;;;;;;21.33;100.00;98384.84;5046099;28;20200;-79
2022/08/16 07:43:18;;;;;;;9.60;8.70;;;;;;;21.40;100.00;98388.44;5051606;28;20239;-79
2022/08/16 07:45:48;;;;;;;10.90;9.90;;;;;;;21.45;100.00;98394.13;4999734;28;20201;-79
2022/08/16 07:48:22;;;;;;;10.97;9.50;;;;;;;21.39;100.00;98389.47;5046690;28;20272;-79
2022/08/16 07:50:51;;;;;;;11.70;9.23;;;;;;;21.38;100.00;98388.63;5045713;28;20201;-80
2022/08/16 07:53:29;;;;;;;9.20;8.23;;;;;;;21.59;100.00;98385.16;5044771;28;20364;-80
2022/08/16 07:55:59;;;;;;;11.03;8.83;;;;;;;21.60;100.00;98384.16;5046118;28;20193;-79
2022/08/16 07:58:32;;;;;;;12.60;10.17;;;;;;;21.67;100.00;98384.25;5044526;28;20197;-79
2022/08/16 08:01:05;;;;;;;9.97;8.50;;;;;;;21.95;100.00;98381.69;5041985;28;20193;-80
2022/08/16 08:03:42;;;;;;;10.17;9.03;;;;;;;21.94;100.00;98390.81;5049564;28;20212;-79
2022/08/16 08:06:17;;;;;;;9.82;8.18;;;;;;;21.97;100.00;98393.09;5105267;28;20187;-79
2022/08/16 08:08:47;;;;;;;10.13;7.95;;;;;;;21.97;100.00;98390.41;5108710;28;20226;-79
2022/08/16 08:11:21;;;;;;;11.40;8.90;;;;;;;22.13;100.00;98397.47;5111121;28;20198;-79
2022/08/16 08:13:52;;;;;;;10.05;7.80;;;;;;;22.30;100.00;98395.38;5110605;28;20225;-80
2022/08/16 08:16:21;;;;;;;9.80;8.77;;;;;;;22.53;100.00;98402.25;5113413;28;20195;-79
2022/08/16 08:19:00;;;;;;;12.45;8.63;;;;;;;22.64;100.00;98394.66;5110535;28;20202;-79
2022/08/16 08:21:30;;;;;;;11.43;9.27;;;;;;;22.65;100.00;98399.88;5108778;28;20187;-79
2022/08/16 08:24:23;;;;;;;9.77;8.77;;;;;;;22.25;100.00;98399.47;5113747;28;20253;-79
2022/08/16 08:27:00;;;;;;;9.60;8.60;;;;;;;22.11;100.00;98400.38;5110408;28;20218;-79
2022/08/16 08:29:32;;;;;;;9.68;8.75;;;;;;;21.97;100.00;98396.63;5109724;28;20197;-79
2022/08/16 08:32:10;;;;;;;10.63;9.48;;;;;;;22.28;100.00;98401.78;5108946;28;20664;-80
2022/08/16 08:35:01;;;;;;;9.90;8.48;;;;;;;22.56;100.00;98399.16;5113333;28;20195;-79
2022/08/16 08:37:31;;;;;;;9.82;8.32;;;;;;;22.81;100.00;98393.38;5110532;28;20270;-80
2022/08/16 08:40:23;;;;;;;9.35;8.38;;;;;;;23.28;100.00;98394.59;5113379;28;20251;-80
2022/08/16 08:42:55;;;;;;;9.43;8.32;;;;;;;23.52;100.00;98391.38;5107358;28;20236;-80
2022/08/16 08:45:40;;;;;;;8.15;7.35;;;;;;;23.72;100.00;98396.94;5107695;28;20204;-80
2022/08/16 08:48:20;;;;;;;9.77;7.65;;;;;;;23.60;100.00;98395.84;5049438;28;20204;-80
2022/08/16 08:51:02;;;;;;;11.35;8.48;;;;;;;23.70;100.00;98401.72;5048984;28;20201;-79
2022/08/16 08:53:32;;;;;;;9.52;6.53;;;;;;;23.73;100.00;98408.56;5044588;28;20722;-79
2022/08/16 08:56:05;;;;;;;8.02;7.22;;;;;;;23.81;100.00;98409.25;5005570;28;20198;-80
2022/08/16 08:58:55;;;;;;;7.65;6.57;;;;;;;24.22;100.00;98398.38;4971748;28;20200;-80
2022/08/16 09:01:33;;;;;;;8.98;7.63;;;;;;;24.46;100.00;98399.72;4964442;28;20200;-80
2022/08/16 09:04:11;;;;;;;8.90;7.95;;;;;;;24.60;100.00;98391.59;4970936;28;20196;-79
2022/08/16 09:06:45;;;;;;;8.80;7.13;;;;;;;24.74;100.00;98394.13;4995324;28;20190;-80
2022/08/16 09:09:14;;;;;;;8.18;6.93;;;;;;;24.46;100.00;98397.00;5012013;28;20194;-80
2022/08/16 09:11:46;;;;;;;8.02;5.88;;;;;;;24.74;100.00;98390.56;5013375;28;20198;-80
2022/08/16 09:14:32;;;;;;;8.55;6.32;;;;;;;24.84;100.00;98397.25;5013421;28;20309;-82
2022/08/16 09:17:01;;;;;;;8.32;6.03;;;;;;;24.90;100.00;98392.03;5033073;28;20203;-80
2022/08/16 09:19:44;;;;;;;7.13;6.50;;;;;;;24.90;100.00;98390.19;5068399;28;20197;-80
2022/08/16 09:22:13;;;;;;;5.85;5.25;;;;;;;24.40;100.00;98391.56;5068067;28;20248;-80
2022/08/16 09:24:48;;;;;;;6.15;5.65;;;;;;;24.69;100.00;98395.78;5071904;28;20200;-80
2022/08/16 09:27:23;;;;;;;6.45;5.05;;;;;;;25.06;100.00;98399.78;5096005;28;20274;-80
2022/08/16 09:29:54;;;;;;;5.93;4.82;;;;;;;24.98;100.00;98399.94;5113253;28;20218;-79
2022/08/16 09:32:29;;;;;;;9.50;6.40;;;;;;;25.63;100.00;98395.50;5111070;28;20218;-80
2022/08/16 09:35:01;;;;;;;7.72;5.10;;;;;;;25.67;100.00;98392.16;5112546;28;20211;-80
2022/08/16 09:37:33;;;;;;;6.28;5.15;;;;;;;25.84;100.00;98403.38;5110856;28;20191;-80
2022/08/16 09:40:05;;;;;;;5.40;4.78;;;;;;;25.91;100.00;98381.66;5114818;28;20195;-80
2022/08/16 09:42:57;;;;;;;6.18;4.05;;;;;;;26.24;100.00;98390.44;5033514;28;20225;-81
2022/08/16 09:45:28;;;;;;;7.13;4.57;;;;;;;26.27;100.00;98394.63;5027248;28;20202;-80
2022/08/16 09:47:58;;;;;;;4.88;4.35;;;;;;;26.32;100.00;98388.53;5032193;28;20198;-79
2022/08/16 09:50:28;;;;;;;6.25;4.85;;;;;;;26.05;100.00;98394.09;5028879;28;20221;-79
2022/08/16 09:53:10;;;;;;;6.97;4.70;;;;;;;26.40;100.00;98389.13;5032255;28;20192;-79
2022/08/16 09:55:46;;;;;;;6.82;4.28;;;;;;;26.77;100.00;98381.16;5031166;28;20193;-80
2022/08/16 09:58:26;;;;;;;5.15;4.10;;;;;;;26.79;99.79;98388.03;5032559;28;20255;-80
2022/08/16 10:01:18;;;;;;;4.75;3.72;;;;;;;26.70;98.85;98386.63;5093284;28;20207;-80
2022/08/16 10:03:46;;;;;;;4.47;3.65;;;;;;;26.98;93.27;98388.09;5049679;28;20261;-80
2022/08/16 10:06:33;;;;;;;4.82;3.42;;;;;;;27.20;94.58;98383.94;5049710;28;20188;-80
2022/08/16 10:09:04;;;;;;;4.72;3.33;;;;;;;27.23;93.82;98382.66;5047804;28;20239;-80
2022/08/16 10:14:25;;;;;;;4.32;3.53;;;;;;;26.99;92.54;98392.47;5052796;28;20246;-80
2022/08/16 10:17:03;;;;;;;4.47;3.35;;;;;;;26.76;91.29;98396.63;5048752;28;20279;-80
2022/08/16 10:19:31;;;;;;;3.78;3.40;;;;;;;26.99;91.85;98393.28;5052921;28;20208;-80
2022/08/16 10:22:00;;;;;;;4.57;4.07;;;;;;;27.30;92.92;98388.84;5051069;28;20208;-80
2022/08/16 10:24:33;;;;;;;3.85;3.55;;;;;;;27.48;89.35;98388.88;5052808;28;20220;-80
2022/08/16 10:27:05;;;;;;;4.22;3.38;;;;;;;27.79;86.99;98389.81;5052446;28;20208;-80
2022/08/16 10:29:56;;;;;;;5.18;3.70;;;;;;;26.73;90.16;98391.66;5115707;28;20207;-80
2022/08/16 10:32:33;;;;;;;6.63;3.70;;;;;;;27.23;88.28;98386.22;5090372;28;20231;-80
2022/08/16 10:35:02;;;;;;;3.70;3.40;;;;;;;27.74;85.24;98385.06;5083710;28;20219;-80
2022/08/16 10:37:31;;;;;;;5.45;3.60;;;;;;;27.48;86.39;98388.88;5083346;28;20196;-80
2022/08/16 10:40:07;;;;;;;5.75;3.10;;;;;;;27.93;82.82;98396.78;5090082;28;20239;-79
2022/08/16 10:42:59;;;;;;;3.78;3.20;;;;;;;28.44;78.75;98388.13;5092728;28;20223;-80
2022/08/16 10:45:36;;;;;;;4.35;3.00;;;;;;;28.50;74.77;98386.38;5088159;28;20202;-80
2022/08/16 10:48:12;;;;;;;5.13;3.10;;;;;;;28.35;72.65;98388.69;5051007;28;20196;-80
2022/08/16 10:50:57;;;;;;;4.85;3.20;;;;;;;28.95;69.72;98383.16;5047077;28;20208;-80
2022/08/16 10:53:27;;;;;;;4.68;2.78;;;;;;;29.10;67.65;98388.19;5043771;28;20239;-80
2022/08/16 10:56:01;;;;;;;3.63;3.20;;;;;;;29.44;69.66;98376.44;5050346;28;20684;-80
2022/08/16 10:58:34;;;;;;;3.80;2.90;;;;;;;29.53;69.86;98382.38;5052127;28;20193;-80
2022/08/16 11:01:05;;;;;;;5.38;3.30;;;;;;;29.42;69.49;98388.63;5045326;28;20855;-80
2022/08/16 11:03:54;;;;;;;3.55;3.25;;;;;;;29.30;70.26;98378.56;5051786;28;20208;-80
2022/08/16 11:06:25;;;;;;;3.75;3.20;;;;;;;29.35;66.94;98388.78;5059011;28;20192;-80
2022/08/16 11:08:57;;;;;;;3.70;2.60;;;;;;;28.91;69.27;98387.44;5073598;28;20219;-81
2022/08/16 11:11:45;;;;;;;3.40;2.60;;;;;;;29.10;68.29;98389.00;5073831;28;20250;-80
2022/08/16 11:14:34;;;;;;;6.38;3.20;;;;;;;28.91;70.24;98385.56;5073793;28;20239;-80
2022/08/16 11:17:07;;;;;;;6.53;3.00;;;;;;;29.30;67.48;98394.09;5068368;28;20184;-80
2022/08/16 11:19:41;;;;;;;2.63;2.42;;;;;;;29.31;65.64;98393.88;5073839;28;20184;-80
2022/08/16 11:22:30;;;;;;;3.40;3.10;;;;;;;29.65;66.88;98388.66;5073600;28;20207;-81
2022/08/16 11:25:19;;;;;;;3.22;2.92;;;;;;;29.56;65.38;98388.19;5074542;28;20195;-80
2022/08/16 11:28:08;;;;;;;5.43;3.15;;;;;;;29.10;68.57;98386.28;5073295;28;20227;-80
2022/08/16 11:30:58;;;;;;;3.72;2.67;;;;;;;29.58;65.24;98382.50;5073959;28;20192;-81
2022/08/16 11:33:29;;;;;;;3.25;2.58;;;;;;;29.24;65.07;98398.63;5066118;28;20655;-80
2022/08/16 11:36:19;;;;;;;3.95;3.15;;;;;;;29.22;67.43;98384.38;5073290;28;20220;-80
2022/08/16 11:38:55;;;;;;;3.80;2.90;;;;;;;29.24;67.15;98397.78;5069013;28;20192;-80
2022/08/16 11:41:26;;;;;;;6.30;2.83;;;;;;;27.95;71.10;98408.25;5080613;28;20235;-80
2022/08/16 11:43:59;;;;;;;4.30;2.58;;;;;;;27.65;72.54;98397.28;5113560;28;20199;-80
2022/08/16 11:46:28;;;;;;;4.43;3.08;;;;;;;28.62;70.71;98392.69;5106737;28;20195;-80
2022/08/16 11:49:16;;;;;;;4.78;2.92;;;;;;;29.81;62.85;98387.06;5113575;28;20195;-80
2022/08/16 11:51:45;;;;;;;5.05;3.40;;;;;;;30.06;56.55;98384.03;5113941;28;20294;-80
2022/08/16 11:54:14;;;;;;;5.40;2.53;;;;;;;30.24;55.75;98389.34;5110873;28;20662;-80
2022/08/16 11:56:51;;;;;;;2.60;2.40;;;;;;;30.69;52.57;98383.06;5109570;28;20201;-81
2022/08/16 11:59:26;;;;;;;4.63;2.47;;;;;;;28.92;62.86;98384.47;5109500;28;20194;-80
2022/08/16 12:01:55;;;;;;;3.20;2.90;;;;;;;29.57;60.85;98397.22;5093810;28;20187;-80
2022/08/16 12:04:28;;;;;;;3.10;2.90;;;;;;;29.00;65.33;98392.31;5111293;28;20205;-80
2022/08/16 12:06:57;;;;;;;2.92;2.40;;;;;;;28.27;65.66;98397.16;5107154;28;20217;-80
2022/08/16 12:09:26;;;;;;;4.43;2.83;;;;;;;29.10;62.65;98390.91;5108097;28;20225;-80